Time;durP1;ratioP1;P1;durP2;ratioP2;P2;SDS_P1;SDS_P2;PMS_P1;PMS_P2;Temp;Humidity;BMP_temperature;BMP_pressure;BME280_temperature;BME280_humidity;BME280_pressure;Samples;Min_cycle;Max_cycle;Signal;HPM_P1;HPM_P2
2023/07/11 04:44:19;;;;;;;3.50;2.90;;;17.60;99.90;;;;;;4789787;29;20261;-82
2023/07/11 04:47:37;;;;;;;4.27;2.90;;;17.60;99.90;;;;;;4782836;29;20235;-80
2023/07/11 04:50:37;;;;;;;5.90;3.20;;;17.70;99.90;;;;;;4790415;24;20251;-82
2023/07/11 04:54:05;;;;;;;4.87;3.20;;;17.60;99.90;;;;;;4772560;30;20283;-82
2023/07/11 04:56:58;;;;;;;8.50;3.93;;;17.60;99.90;;;;;;4756720;30;20238;-82
2023/07/11 04:59:35;;;;;;;6.00;3.40;;;17.60;99.90;;;;;;4787159;29;20750;-81
2023/07/11 05:03:08;;;;;;;6.10;3.43;;;17.50;99.90;;;;;;4774832;30;20209;-80
2023/07/11 05:06:36;;;;;;;4.07;3.30;;;17.40;99.90;;;;;;4704475;30;20233;-77
2023/07/11 05:32:59;;;;;;;5.43;2.50;;;18.10;99.90;;;;;;5814461;24;20187;31
2023/07/11 05:39:37;;;;;;;3.50;2.47;;;18.40;99.90;;;;;;4751898;30;20240;-77
2023/07/11 05:42:48;;;;;;;4.20;2.37;;;18.50;99.90;;;;;;4739264;30;20217;-80
2023/07/11 05:45:59;;;;;;;8.00;2.80;;;18.60;99.90;;;;;;4745600;30;20370;-79
2023/07/11 05:49:15;;;;;;;3.90;2.60;;;18.70;99.90;;;;;;4732719;30;20667;-80
2023/07/11 05:51:46;;;;;;;4.07;2.70;;;18.80;99.90;;;;;;4732338;30;20687;-82
2023/07/11 05:54:57;;;;;;;7.17;2.87;;;18.90;99.90;;;;;;4747454;30;20197;-80
2023/07/11 06:02:28;;;;;;;5.07;2.30;;;19.10;99.90;;;;;;4662072;30;20224;-80
2023/07/11 06:06:42;;;;;;;;;;;;;;;;;;;;;
2023/07/11 06:09:51;;;;;;;7.07;3.23;;;19.40;99.90;;;;;;4574101;31;20812;-78
2023/07/11 06:12:38;;;;;;;5.17;4.53;;;19.40;99.90;;;;;;4577169;31;20819;-78
2023/07/11 06:15:12;;;;;;;12.67;6.90;;;19.50;99.90;;;;;;4560877;31;20221;-77
2023/07/11 06:18:13;;;;;;;5.90;4.33;;;19.50;99.90;;;;;;4576869;31;20258;-78
2023/07/11 06:21:11;;;;;;;2.80;2.10;;;19.50;99.90;;;;;;4540542;31;20237;-78
2023/07/11 06:23:44;;;;;;;4.50;2.20;;;19.50;99.90;;;;;;4559634;31;20224;-78
2023/07/11 06:26:35;;;;;;;5.27;2.30;;;19.50;99.90;;;;;;4549242;31;20245;-79
2023/07/11 06:29:31;;;;;;;3.40;2.30;;;19.50;99.90;;;;;;4531897;31;20213;-81
2023/07/11 06:32:12;;;;;;;4.37;2.10;;;19.50;99.90;;;;;;4560094;31;20264;-78
2023/07/11 06:35:24;;;;;;;3.30;2.20;;;19.60;99.90;;;;;;4563414;31;20216;-82
2023/07/11 06:38:28;;;;;;;4.47;2.40;;;19.70;99.90;;;;;;4570312;31;20633;-80
2023/07/11 06:41:20;;;;;;;3.03;1.93;;;19.80;99.90;;;;;;4565323;31;20248;-78
2023/07/11 11:16:47;;;;;;;2.47;1.48;;;30.70;87.50;;;;;;5337664;24;20247;-77
2023/07/11 11:23:50;;;;;;;5.90;1.60;;;30.90;85.00;;;;;;4726567;30;20453;-78
2023/07/11 11:26:41;;;;;;;2.40;1.27;;;29.90;82.00;;;;;;4698988;30;20243;-77
2023/07/11 11:29:18;;;;;;;3.08;1.50;;;29.90;84.00;;;;;;4684314;30;20207;-77
2023/07/11 11:32:14;;;;;;;1.70;1.42;;;30.80;81.40;;;;;;4592374;31;20312;-79
2023/07/11 11:35:19;;;;;;;2.25;1.40;;;30.50;77.90;;;;;;4597120;31;20664;-79
2023/07/11 11:38:00;;;;;;;2.58;1.35;;;30.60;77.10;;;;;;4580538;31;20216;-77
2023/07/11 11:43:35;;;;;;;1.85;1.38;;;29.90;76.90;;;;;;4767740;30;20499;-77
2023/07/11 11:46:28;;;;;;;2.40;1.55;;;29.50;78.20;;;;;;4780040;30;20220;-78
2023/07/11 11:49:52;;;;;;;6.13;1.73;;;29.40;79.90;;;;;;4768422;30;20240;-76
2023/07/11 11:52:44;;;;;;;;;;;;;;;;;;;;;
2023/07/11 11:59:16;;;;;;;3.25;1.80;;;28.00;85.30;;;;;;4814196;24;20253;-80
2023/07/11 12:48:21;;;;;;;4.50;2.85;;;26.60;95.20;;;;;;2889398;24;20241;-78
2023/07/11 13:01:34;;;;;;;4.68;2.50;;;26.00;97.10;;;;;;5048589;24;20259;-79
2023/07/11 17:01:21;;;;;;;3.97;2.83;;;28.30;75.70;;;;;;4777137;24;20329;-84
2023/07/11 17:10:57;;;;;;;5.70;3.00;;;27.50;77.40;;;;;;4800433;24;20331;-85
2023/07/11 17:28:34;;;;;;;;;;;;;;;;;;;;;
2023/07/11 19:11:37;;;;;;;5.07;3.30;;;23.50;93.90;;;;;;5237568;24;20393;-92
2023/07/11 19:18:16;;;;;;;5.25;3.60;;;23.30;94.60;;;;;;4848510;24;20251;-80
2023/07/11 21:11:09;;;;;;;8.07;4.00;;;21.50;99.90;;;;;;5555418;24;20911;-84
2023/07/11 21:14:26;;;;;;;5.63;4.47;;;21.30;99.90;;;;;;5246812;24;20244;-86
2023/07/11 21:17:23;;;;;;;6.07;4.43;;;21.40;99.90;;;;;;4758332;30;20220;-81
2023/07/11 21:21:09;;;;;;;6.80;4.40;;;21.20;99.90;;;;;;4770408;30;20240;-82
2023/07/11 21:25:19;;;;;;;;;;;;;;;;;;;;;
2023/07/11 21:28:36;;;;;;;7.57;4.80;;;21.10;99.90;;;;;;4768304;24;20738;-82
2023/07/11 21:31:40;;;;;;;6.23;4.60;;;21.00;99.90;;;;;;4795102;24;20408;-79
2023/07/11 21:35:19;;;;;;;8.23;5.00;;;21.00;99.90;;;;;;4724569;30;20225;-79
2023/07/11 21:41:22;;;;;;;8.23;4.60;;;20.90;99.90;;;;;;4784285;30;20220;-83
2023/07/11 21:44:06;;;;;;;9.30;4.90;;;20.80;99.90;;;;;;4771117;30;20734;-82
2023/07/11 21:46:56;;;;;;;6.60;4.80;;;20.80;99.90;;;;;;4786836;30;20243;-82
2023/07/11 21:49:48;;;;;;;7.27;4.70;;;20.70;99.90;;;;;;4786984;30;20710;-81
2023/07/11 21:55:47;;;;;;;6.97;4.63;;;20.60;99.90;;;;;;4757478;30;20226;-83
2023/07/11 21:59:08;;;;;;;7.17;4.80;;;20.50;99.90;;;;;;4719870;30;20375;-83
2023/07/11 22:02:07;;;;;;;6.57;4.73;;;20.40;99.90;;;;;;4705572;30;20801;-81
